Tiempo atmosférico en la estación meteorológica de Zafra, Badajoz (433 m.)



Fecha
DESCASC
Temp. máxima en grados centígrados (hora)
DESCASC
Temp. mínima en grados centígrados (hora)
DESCASC
Temp. media en grados centígrados
DESCASC
Racha de viento máxima en m/sg (hora)
DESCASC
Velocidad máxima media en intervalos de 10 minutos(hora)
DESCASC
Precipitaciones diarias en mm
DESCASC
Precipitaciones de 00:00 a 06:00 en mm
DESCASC
Precipitaciones de 06:00 a 12:00 en mm
DESCASC
Precipitaciones de 12:00 a 18:00 en mm
DESCASC
Precipitaciones de 18:00 a 24:00 en mm
DESCASC
06-12-2018 17.2 (16:00) 3.6 (08:30) 10.4 6.39 (15:10) 4.72 (15:10) 0 0 0 0 0
05-12-2018 19.2 (14:40) 5.5 (08:40) 12.4 5 (15:20) 3.89 (15:30) 0 0 0 0 0
04-12-2018 24 (15:10) 2.6 (06:50) 13.3 3.61 (22:20) 2.78 (23:50) 0.2 0 0.2 0 0
03-12-2018 15.5 (13:40) 3.1 (00:00) 9.3 7.78 (14:20) 5.28 (14:20) 0 0 0 0 0
02-12-2018 16.4 (14:40) 4.1 (00:00) 10.2 5 (17:00) 3.61 (17:50) 0 0 0 0 0
01-12-2018 14.8 (14:30) 2.5 (00:00) 8.7 5 (15:50) 3.61 (15:50) 0.2 0 0.2 0 0
30-11-2018 12.9 (01:30) 3.9 (00:00) 8.4 8.06 (15:20) 6.11 (07:00) 1 1 0 0 0
29-11-2018 15.4 (14:30) 3 (00:00) 9.2 9.72 (18:50) 5.56 (20:30) 1.4 0 0 0 1.4
28-11-2018 16.6 (15:30) 2.1 (00:00) 9.4 4.17 (23:40) 3.61 (23:40) 0 0 0 0 0
27-11-2018 15 (15:20) 4 (00:00) 9.5 4.44 (09:20) 2.78 (09:40) 0 0 0 0 0
26-11-2018 13.1 (14:40) 4.5 (23:50) 8.8 13.61 (01:20) 9.17 (03:30) 0 0 0 0 0
25-11-2018 14.8 (14:30) 11.9 (00:00) 13.3 16.67 (18:30) 7.78 (23:10) 18 10.6 1 0 6.4
24-11-2018 14.6 (14:40) 3.5 (00:00) 9.1 11.94 (22:40) 6.67 (21:10) 2.2 0 0 0 2.2
23-11-2018 15.2 (15:30) 4.9 (00:00) 10 6.11 (11:00) 3.61 (16:00) 1.8 1.8 0 0 0
22-11-2018 13.2 (13:40) 7 (00:00) 10.1 7.5 (16:30) 5 (16:30) 0 0 0 0 0
21-11-2018 14.5 (14:30) 7 (00:00) 10.8 8.61 (13:30) 4.17 (13:40) 1.8 0.8 0.4 0.6 0
20-11-2018 13.8 (14:40) 9.8 (00:00) 11.8 10.83 (16:50) 4.72 (16:50) 3.8 1.4 1.2 1.2 0
19-11-2018 13.4 (13:20) 9.7 (00:00) 11.5 5 (20:10) 3.06 (20:10) 1 0.2 0 0.8 0
18-11-2018 13.8 (17:00) 10.7 (00:00) 12.3 10.83 (10:00) 6.67 (10:00) 7.6 0 5.6 1.8 0.2
17-11-2018 18.8 (14:00) 8.7 (00:00) 13.7 9.72 (11:20) 6.39 (13:10) 0 0 0 0 0
16-11-2018 18.8 (14:00) 8.4 (00:00) 13.6 8.06 (12:40) 5.28 (12:40) 0.2 0 0.2 0 0
15-11-2018 20.6 (14:00) 9.9 (00:00) 15.3 7.22 (17:40) 3.61 (17:50) 0.4 0 0 0 0.4
14-11-2018 20.8 (15:20) 8.2 (00:00) 14.5 9.44 (15:30) 3.89 (12:50) 0.6 0 0 0 0.6
13-11-2018 16.6 (16:20) 9.2 (00:00) 12.9 5 (14:20) 3.61 (17:10) 0.2 0.2 0 0 0
12-11-2018 14.9 (15:00) 10.4 (00:00) 12.6 12.5 (01:40) 8.06 (01:40) 4.8 1 2 0 1.8
11-11-2018 18.5 (15:20) 10.7 (00:00) 14.6 12.5 (14:40) 7.5 (14:40) 5.8 0 0.2 0 5.6
10-11-2018 16.1 (15:40) 12.1 (00:00) 14.1 17.5 (11:50) 8.61 (12:10) 2.4 0 0 0.4 2

Gráficas

Temp. máximas Temp. mínimas Temp. medias Precipitaciones Rachas de viento máximas Velocidades máximas media en intervalos de 10 minutos

Datos horarios

Fecha y hora oficial Temperatura (ºC) Velocidad del viento (km/h) Dirección del viento Racha (km/h) Dirección de racha Precipitación (mm) Presión (hPa) Tendencia (hPa) Humedad (%)
2018-12-09 23:00:00 6.2 8 Sudeste 10 Sur 0 -- -- 96
2018-12-09 22:00:00 6.7 6 Sudeste 9 Sudeste 0 -- -- 96
2018-12-09 21:00:00 7.2 4 Sudeste 5 Sur 0 -- -- 94
2018-12-09 20:00:00 8.5 4 Sudeste 5 Sur 0 -- -- 93
2018-12-09 19:00:00 10.2 0 Calma 4 Noroeste 0 -- -- 86
2018-12-09 18:00:00 13.3 4 Noroeste 6 Noroeste 0 -- -- 77
2018-12-09 17:00:00 15.9 5 Noroeste 8 Oeste 0 -- -- 67
2018-12-09 16:00:00 18 6 Oeste 12 Noroeste 0 -- -- 59
2018-12-09 15:00:00 17 10 Noroeste 17 Noroeste 0 -- -- 70
2018-12-09 14:00:00 16.2 14 Noroeste 19 Noroeste 0 -- -- 72
2018-12-09 13:00:00 15.9 15 Noroeste 18 Noroeste 0 -- -- 73
2018-12-09 12:00:00 15.4 5 Noroeste 8 Noroeste 0 -- -- 73
2018-12-09 11:00:00 13 5 Sudeste 9 Sudeste 0 -- -- 79
2018-12-09 10:00:00 7.5 6 Sudeste 9 Sudeste 0 -- -- 95
2018-12-09 09:00:00 4.3 2 Sudeste 15 Sudeste 0 -- -- 98
2018-12-09 08:00:00 4.5 12 Sudeste 19 Sudeste 0 -- -- 99
2018-12-09 07:00:00 4.1 10 Sudeste 17 Sudeste 0 -- -- 98
2018-12-09 06:00:00 4 10 Sudeste 13 Sudeste 0 -- -- 99
2018-12-09 05:00:00 4 9 Sudeste 11 Sudeste 0 -- -- 98
2018-12-09 04:00:00 4.2 7 Sudeste 14 Sudeste 0 -- -- 98
2018-12-09 03:00:00 4 8 Sudeste 10 Sudeste 0 -- -- 100
2018-12-09 02:00:00 3.3 4 Sudeste 6 Sudeste 0 -- -- 99
2018-12-09 01:00:00 4 5 Sudeste 10 Sudeste 0 -- -- 98
2018-12-09 00:00:00 4.7 8 Sudeste 10 Sudeste 0 -- -- 98
2018-12-08 23:00:00 5.9 8 Sudeste 11 Sudeste 0 -- -- 99
2018-12-08 22:00:00 5.9 4 Sudeste 8 Sudeste 0 -- -- 99
2018-12-08 21:00:00 5.5 3 Sudeste 5 Norte 0 -- -- 98
2018-12-08 20:00:00 6.3 3 Noroeste 6 Noroeste 0 -- -- 97
2018-12-08 19:00:00 7.6 2 Noroeste 10 Noroeste 0 -- -- 96
2018-12-08 18:00:00 9 6 Noroeste 10 Oeste 0 -- -- 94
2018-12-08 17:00:00 10.7 7 Noroeste 12 Noroeste 0 -- -- 88
2018-12-08 16:00:00 12.2 7 Norte 17 Norte 0 -- -- 83
2018-12-08 15:00:00 11.3 11 Norte 19 Norte 0 -- -- 90
2018-12-08 14:00:00 10.6 10 Norte 17 Noroeste 0 -- -- 100
2018-12-08 13:00:00 9.9 8 Norte 14 Noroeste 0 -- -- 100
2018-12-08 12:00:00 9.5 7 Noroeste 12 Norte 0 -- -- 100
2018-12-08 11:00:00 8.7 3 Noroeste 6 Norte 0 -- -- 100
2018-12-08 10:00:00 6.7 2 Sudeste 8 Sur 0 -- -- 100
2018-12-08 09:00:00 4.8 4 Sudeste 12 Sur 0 -- -- 99
2018-12-08 08:00:00 3.8 7 Sur 12 Sur 0 -- -- 99
2018-12-08 07:00:00 3.9 10 Sur 15 Sur 0 -- -- 99
2018-12-08 06:00:00 3.9 7 Sur 11 Sur 0.2 -- -- 99
2018-12-08 05:00:00 3.8 5 Sudeste 9 Sudeste 0 -- -- 99
2018-12-08 04:00:00 4.1 5 Sudeste 8 Sur 0 -- -- 99
2018-12-08 03:00:00 4.7 6 Sudeste 8 Sudeste 0 -- -- 99
2018-12-08 02:00:00 5.3 5 Sudeste 9 Sudeste 0 -- -- 98
2018-12-08 01:00:00 6.5 7 Sur 9 Sudeste 0 -- -- 99
2018-12-08 00:00:00 6.7 5 Sudeste 7 Sudeste 0 -- -- 98
2018-12-07 23:00:00 8.1 4 Sudeste 6 Sudeste 0 -- -- 98
2018-12-07 22:00:00 9.3 0 Calma 5 Norte 0 -- -- 98
2018-12-07 21:00:00 9.9 5 Noroeste 13 Noroeste 0 -- -- 98
2018-12-07 20:00:00 9.2 8 Noroeste 10 Norte 0 -- -- 96
2018-12-07 19:00:00 10.5 4 Noroeste 14 Noroeste 0 -- -- 89
2018-12-07 18:00:00 12.3 10 Noroeste 15 Noroeste 0 -- -- 81
2018-12-07 17:00:00 15.2 6 Noroeste 16 Noroeste 0 -- -- 65
2018-12-07 16:00:00 17.9 9 Noroeste 13 Noroeste 0 -- -- 61
2018-12-07 15:00:00 17.6 6 Noroeste 13 Noroeste 0 -- -- 51
2018-12-07 14:00:00 16.1 8 Noroeste 12 Norte 0 -- -- 59
2018-12-07 13:00:00 14 5 Norte 18 Noroeste 0 -- -- 76
2018-12-07 12:00:00 12.9 10 Noroeste 19 Noroeste 0 -- -- 81
2018-12-07 11:00:00 11.7 6 Noroeste 8 Noroeste 0 -- -- 87
2018-12-07 10:00:00 8.1 5 Sudeste 11 Sudeste 0 -- -- 97
2018-12-07 09:00:00 3.8 6 Sudeste 11 Sudeste 0 -- -- 100
2018-12-07 08:00:00 3.5 5 Sudeste 8 Sudeste 0 -- -- 99
2018-12-07 07:00:00 3.8 6 Sudeste 9 Sudeste 0 -- -- 99
2018-12-07 06:00:00 3.9 6 Sudeste 8 Sudeste 0.2 -- -- 99
2018-12-07 05:00:00 3.9 5 Sudeste 9 Sudeste 0 -- -- 99
2018-12-07 04:00:00 4.5 6 Sur 9 Sudeste 0 -- -- 99
2018-12-07 03:00:00 4.7 6 Sudeste 9 Sudeste 0 -- -- 99
2018-12-07 02:00:00 5.2 8 Sudeste 10 Sur 0 -- -- 98
2018-12-07 01:00:00 5.5 8 Sudeste 10 Sudeste 0 -- -- 98
2018-12-07 00:00:00 5.8 7 Sudeste 9 Sudeste 0 -- -- 98
2018-12-06 23:00:00 6.2 6 Sudeste 8 Sudeste 0 -- -- 97
2018-12-06 22:00:00 6.9 5 Sudeste 8 Sudeste 0 -- -- 97
2018-12-06 21:00:00 7.5 6 Sudeste 8 Sudeste 0 -- -- 95
2018-12-06 20:00:00 8.8 4 Sudeste 6 Sudeste 0 -- -- 94
2018-12-06 19:00:00 11 2 Norte 9 Noroeste 0 -- -- 88
2018-12-06 18:00:00 13.4 6 Noroeste 13 Noroeste 0 -- -- 82
2018-12-06 17:00:00 15.2 10 Noroeste 17 Noroeste 0 -- -- 76
2018-12-06 16:00:00 17.2 13 Noroeste 23 Noroeste 0 -- -- 70
2018-12-06 15:00:00 16.9 13 Noroeste 19 Noroeste 0 -- -- 72
2018-12-06 14:00:00 16.1 12 Noroeste 20 Noroeste 0 -- -- 74
2018-12-06 13:00:00 15 12 Noroeste 17 Noroeste 0 -- -- 77
2018-12-06 12:00:00 13.4 14 Noroeste 19 Noroeste 0 -- -- 83
2018-12-06 11:00:00 11.9 7 Noroeste 11 Noroeste 0 -- -- 88
2018-12-06 10:00:00 8.2 7 Sudeste 12 Sur 0 -- -- 95
2018-12-06 09:00:00 4 8 Sudeste 10 Sudeste 0 -- -- 99
2018-12-06 08:00:00 3.7 6 Sudeste 12 Sur 0 -- -- 99
2018-12-06 07:00:00 4 6 Sudeste 10 Sur 0 -- -- 98
2018-12-06 06:00:00 4.8 6 Sur 12 Sudeste 0 -- -- 99
2018-12-06 05:00:00 4.9 8 Sudeste 12 Sur 0 -- -- 99
2018-12-06 04:00:00 4.9 5 Sudeste 9 Sudeste 0 -- -- 98
2018-12-06 03:00:00 5 6 Sudeste 9 Sur 0 -- -- 98
2018-12-06 02:00:00 4.7 4 Sudeste 5 Sudeste 0 -- -- 97
2018-12-06 01:00:00 5.5 4 Sudeste 8 Sur 0 -- -- 97
2018-12-06 00:00:00 6.3 5 Sur 11 Sur 0 -- -- 96
2018-12-05 23:00:00 7.4 9 Sudeste 12 Sudeste 0 -- -- 96
2018-12-05 22:00:00 7.9 6 Sur 11 Sur 0 -- -- 96
2018-12-05 21:00:00 8.1 6 Sudeste 10 Sudeste 0 -- -- 95
2018-12-05 20:00:00 9.3 4 Sudeste 8 Sudeste 0 -- -- 93
2018-12-05 19:00:00 10.7 5 Sudeste 8 Sudeste 0 -- -- 91
2018-12-05 18:00:00 14.2 2 Norte 9 Noroeste 0 -- -- 81
2018-12-05 17:00:00 16.8 7 Noroeste 17 Noroeste 0 -- -- 72
2018-12-05 16:00:00 18.7 12 Noroeste 18 Noroeste 0 -- -- 65
2018-12-05 15:00:00 19 13 Noroeste 17 Noroeste 0 -- -- 66
2018-12-05 14:00:00 19.1 8 Noroeste 14 Noroeste 0 -- -- 63
2018-12-05 13:00:00 18.5 5 Noroeste 9 Norte 0 -- -- 63
2018-12-05 12:00:00 17.4 4 Noroeste 10 Sudeste 0 -- -- 65
2018-12-05 11:00:00 14.8 8 Sur 11 Sur 0 -- -- 74
2018-12-05 10:00:00 10.1 9 Sudeste 17 Sur 0 -- -- 85
2018-12-05 09:00:00 6.2 10 Sudeste 12 Sur 0 -- -- 95
2018-12-05 08:00:00 6.2 4 Sudeste 15 Sudeste 0 -- -- 93
2018-12-05 07:00:00 6.3 10 Sudeste 12 Sudeste 0 -- -- 95
2018-12-05 06:00:00 6.9 10 Sudeste 14 Sudeste 0 -- -- 94
2018-12-05 05:00:00 6.9 11 Sudeste 14 Sur 0 -- -- 95
2018-12-05 04:00:00 7.8 10 Sur 13 Sur 0 -- -- 92
2018-12-05 03:00:00 8 10 Sur 13 Sur 0 -- -- 94
2018-12-05 02:00:00 7.9 9 Sudeste 14 Sudeste 0 -- -- 94
2018-12-05 01:00:00 8.9 10 Sur 13 Sur 0 -- -- 93
2018-12-05 00:00:00 8.4 9 Sudeste 11 Sudeste 0 -- -- 94
2018-12-04 23:00:00 9.4 8 Sudeste 13 Sudeste 0 -- -- 92
2018-12-04 22:00:00 9.3 9 Sudeste 11 Sudeste 0 -- -- 94
2018-12-04 21:00:00 9.6 7 Sudeste 10 Sudeste 0 -- -- 93
2018-12-04 20:00:00 10.6 6 Sudeste 8 Sudeste 0 -- -- 92
2018-12-04 19:00:00 12.2 5 Sudeste 6 Sudeste 0 -- -- 88
2018-12-04 18:00:00 15 4 Sudeste 7 Noroeste 0 -- -- 78
2018-12-04 17:00:00 18.4 6 Noroeste 10 Noroeste 0 -- -- 68
2018-12-04 16:00:00 23.4 6 Sudeste 10 Sudeste 0 -- -- 39
2018-12-04 15:00:00 23.9 3 Sudoeste 8 Sur 0 -- -- 35
2018-12-04 14:00:00 22.6 0 Calma 6 Sur 0 -- -- 38
2018-12-04 13:00:00 21 4 Sur 7 Sur 0 -- -- 47
2018-12-04 12:00:00 18.6 4 Sur 8 Sur 0 -- -- 56
2018-12-04 11:00:00 14.2 8 Sur 12 Sudeste 0 -- -- 75
2018-12-04 10:00:00 8.9 8 Sur 10 Sudeste 0 -- -- 91
2018-12-04 09:00:00 3.8 6 Sudeste 8 Sudeste 0.2 -- -- 100
2018-12-04 08:00:00 3 5 Sudeste 7 Sudeste 0 -- -- 100
2018-12-04 07:00:00 2.7 3 Sudeste 4 Sudeste 0 -- -- 100
2018-12-04 06:00:00 3 0 Calma 4 Sur 0 -- -- 100
2018-12-04 05:00:00 3.5 0 Calma 4 Sudeste 0 -- -- 100
2018-12-04 04:00:00 4.1 2 Noroeste 6 Sudeste 0 -- -- 100
2018-12-04 03:00:00 4.4 3 Sudeste 6 Sudeste 0 -- -- 100
2018-12-04 02:00:00 4.6 4 Sudeste 5 Sudeste 0 -- -- 100
2018-12-04 01:00:00 5.5 4 Sudeste 5 Sur 0 -- -- 100
2018-12-04 00:00:00 6.3 2 Noroeste 6 Noroeste 0 -- -- 100
2018-12-03 23:00:00 6.5 2 Oeste 9 Sudeste 0 -- -- 99
2018-12-03 22:00:00 7.3 0 Calma 5 Noroeste 0 -- -- 100
2018-12-03 21:00:00 8 3 Sudeste 13 Sudeste 0 -- -- 99
2018-12-03 20:00:00 8.6 5 Sudeste 9 Noroeste 0 -- -- 99
2018-12-03 19:00:00 9 6 Noroeste 11 Noroeste 0 -- -- 99
2018-12-03 18:00:00 9.4 8 Noroeste 14 Noroeste 0 -- -- 98
2018-12-03 17:00:00 10.4 10 Noroeste 14 Noroeste 0 -- -- 95
2018-12-03 16:00:00 12.2 9 Noroeste 13 Oeste 0 -- -- 90
2018-12-03 15:00:00 12.6 12 Noroeste 28 Norte 0 -- -- 88
2018-12-03 14:00:00 14.6 17 Noroeste 24 Noroeste 0 -- -- 85
2018-12-03 13:00:00 14.5 4 Noroeste 5 Noroeste 0 -- -- 83
2018-12-03 12:00:00 12.8 5 Noroeste 8 Sur 0 -- -- 87
2018-12-03 11:00:00 9.9 6 Sur 12 Sudeste 0 -- -- 100
2018-12-03 10:00:00 6.2 9 Sudeste 12 Sudeste 0 -- -- 100
2018-12-03 09:00:00 4.8 6 Sudeste 9 Sur 0 -- -- 100
2018-12-03 08:00:00 3.1 4 Sudeste 6 Sudeste 0 -- -- 100
2018-12-03 07:00:00 3.5 5 Sudeste 9 Sudeste 0 -- -- 100
2018-12-03 06:00:00 3.5 5 Sudeste 6 Sudeste 0 -- -- 100
2018-12-03 05:00:00 3.9 5 Sudeste 6 Sudeste 0 -- -- 100
2018-12-03 04:00:00 4.2 4 Sudeste 6 Sudeste 0 -- -- 99
2018-12-03 03:00:00 4 4 Sudeste 5 Sudeste 0 -- -- 99
2018-12-03 02:00:00 4.7 3 Sudeste 6 Sudeste 0 -- -- 99
2018-12-03 01:00:00 5.5 5 Sudeste 8 Sudeste 0 -- -- 99
2018-12-03 00:00:00 6.4 7 Sudeste 15 Sudeste 0 -- -- 99
2018-12-02 23:00:00 7.6 9 Sudeste 13 Sudeste 0 -- -- 98
2018-12-02 22:00:00 9.3 4 Sudeste 8 Sur 0 -- -- 98
2018-12-02 21:00:00 9.7 2 Sur 5 Este 0 -- -- 98
2018-12-02 20:00:00 9.3 0 Calma 8 Noroeste 0 -- -- 97
2018-12-02 19:00:00 9.6 6 Noroeste 13 Noroeste 0 -- -- 94
2018-12-02 18:00:00 11.8 12 Noroeste 18 Noroeste 0 -- -- 90
2018-12-02 17:00:00 14.2 13 Noroeste 18 Noroeste 0 -- -- 80
2018-12-02 16:00:00 15.9 13 Noroeste 16 Noroeste 0 -- -- 73
2018-12-02 15:00:00 16.4 3 Noroeste 6 Noroeste 0 -- -- 69
2018-12-02 14:00:00 15.5 3 Sudoeste 8 Sudeste 0 -- -- 72
2018-12-02 13:00:00 14.2 3 Sudeste 8 Sudeste 0 -- -- 77
2018-12-02 12:00:00 12.8 4 Sudeste 8 Sudeste 0 -- -- 82
2018-12-02 11:00:00 10.9 3 Sudeste 8 Sudeste 0 -- -- 87
2018-12-02 10:00:00 8 6 Sur 10 Sudeste 0 -- -- 93
2018-12-02 09:00:00 4.4 6 Sur 14 Sudeste 0 -- -- 97
2018-12-02 08:00:00 4.2 9 Sudeste 13 Sudeste 0 -- -- 97
2018-12-02 07:00:00 4.5 8 Sudeste 9 Sur 0 -- -- 97
2018-12-02 06:00:00 4.8 6 Sur 10 Sudeste 0 -- -- 98
2018-12-02 05:00:00 4.4 6 Sur 10 Sur 0 -- -- 97
2018-12-02 04:00:00 4.4 7 Sudeste 9 Sudeste 0 -- -- 97
2018-12-02 03:00:00 4.5 6 Sudeste 9 Sudeste 0 -- -- 97
2018-12-02 02:00:00 5.3 7 Sudeste 11 Sur 0 -- -- 96
2018-12-02 01:00:00 5.1 5 Sudeste 9 Sudeste 0 -- -- 97
2018-12-02 00:00:00 5.4 6 Sudeste 8 Sudeste 0 -- -- 95
2018-12-01 23:00:00 5.8 5 Sur 9 Sudeste 0 -- -- 95
2018-12-01 22:00:00 6 5 Sudeste 8 Sudeste 0 -- -- 95
2018-12-01 21:00:00 6.7 3 Sur 6 Sudeste 0 -- -- 93
2018-12-01 20:00:00 7.6 2 Sudeste 7 Sudeste 0 -- -- 92
2018-12-01 19:00:00 9.1 0 Calma 6 Noroeste 0 -- -- 88
2018-12-01 18:00:00 11 6 Noroeste 9 Noroeste 0 -- -- 81
2018-12-01 17:00:00 13.6 7 Norte 15 Noroeste 0 -- -- 68
2018-12-01 16:00:00 14.3 12 Noroeste 18 Noroeste 0 -- -- 66
2018-12-01 15:00:00 14.6 8 Norte 15 Noroeste 0 -- -- 66
2018-12-01 14:00:00 14.3 8 Norte 14 Norte 0 -- -- 62
2018-12-01 13:00:00 13.9 3 Norte 10 Sudeste 0 -- -- 63
2018-12-01 12:00:00 12.9 6 Sudeste 11 Sudeste 0 -- -- 70
2018-12-01 11:00:00 11.1 5 Sudeste 8 Este 0 -- -- 80
2018-12-01 10:00:00 7.4 5 Sudeste 10 Sur 0 -- -- 93
2018-12-01 09:00:00 3.6 7 Sur 9 Sur 0.2 -- -- 99
2018-12-01 08:00:00 2.5 5 Sur 9 Sur 0 -- -- 98
2018-12-01 07:00:00 2.7 6 Sudeste 10 Sur 0 -- -- 98
2018-12-01 06:00:00 3 5 Sudeste 9 Sudeste 0 -- -- 98
2018-12-01 05:00:00 3.2 7 Sudeste 12 Sudeste 0 -- -- 98
2018-12-01 04:00:00 3.9 9 Sur 13 Sur 0 -- -- 98
2018-12-01 03:00:00 3.2 3 Sudeste 6 Sudeste 0 -- -- 98
2018-12-01 02:00:00 3.5 5 Sudeste 9 Sudeste 0 -- -- 98
2018-12-01 01:00:00 3.6 5 Sudeste 8 Sudeste 0 -- -- 98
2018-12-01 00:00:00 3.9 6 Sudeste 9 Sudeste 0 -- -- 97
2018-11-30 23:00:00 4.2 4 Sudeste 9 Sudeste 0 -- -- 97
2018-11-30 22:00:00 4.7 6 Sudeste 8 Sudeste 0 -- -- 96
2018-11-30 21:00:00 5.3 4 Sudeste 6 Sudeste 0 -- -- 95
2018-11-30 20:00:00 6.2 2 Sudeste 5 Sur 0 -- -- 93
2018-11-30 19:00:00 7.5 3 Sudeste 6 Sur 0 -- -- 90
2018-11-30 18:00:00 10 4 Noroeste 24 Noroeste 0 -- -- 80
2018-11-30 17:00:00 12 14 Norte 27 Noroeste 0 -- -- 72
2018-11-30 16:00:00 12.8 18 Noroeste 29 Noroeste 0 -- -- 67
2018-11-30 15:00:00 12.7 16 Noroeste 28 Norte 0 -- -- 72
2018-11-30 14:00:00 11.9 16 Noroeste 23 Noroeste 0 -- -- 77
2018-11-30 13:00:00 11 14 Noroeste 24 Noroeste 0 -- -- 83
2018-11-30 12:00:00 10.1 15 Noroeste 22 Noroeste 0 -- -- 88
2018-11-30 11:00:00 9.5 11 Norte 22 Noroeste 0 -- -- 90
2018-11-30 10:00:00 8.7 10 Norte 21 Norte 0 -- -- 93
2018-11-30 09:00:00 8.3 13 Norte 24 Noroeste 0 -- -- 93
2018-11-30 08:00:00 8.4 12 Norte 28 Noroeste 0 -- -- 94
2018-11-30 07:00:00 8.6 22 Noroeste 28 Noroeste 0 -- -- 94
2018-11-30 06:00:00 9 18 Noroeste 27 Noroeste 0 -- -- 97
2018-11-30 05:00:00 10.3 13 Noroeste 21 Noroeste 0 -- -- 95
2018-11-30 04:00:00 10.8 15 Noroeste 23 Noroeste 0 -- -- 95
2018-11-30 03:00:00 12.3 5 Norte 13 Noroeste 0 -- -- 93
2018-11-30 02:00:00 12.8 2 Sudoeste 25 Sur 0 -- -- 93
2018-11-30 01:00:00 12.7 11 Sudoeste 26 Sudoeste 1 -- -- 93
2018-11-30 00:00:00 11.9 5 Sudeste 25 Sudeste 1.2 -- -- 95
2018-11-29 23:00:00 11.4 11 Sudeste 22 Sudeste 0.2 -- -- 94
2018-11-29 22:00:00 11.8 16 Sudeste 27 Sudeste 0 -- -- 87
2018-11-29 21:00:00 12.1 20 Sudeste 33 Sudeste 0 -- -- 80
2018-11-29 20:00:00 12.1 18 Sudeste 32 Sudeste 0 -- -- 81
2018-11-29 19:00:00 12.3 17 Sudeste 35 Sudeste 0 -- -- 79
2018-11-29 18:00:00 12.9 14 Sudoeste 28 Sur 0 -- -- 76
2018-11-29 17:00:00 13.3 10 Sudoeste 21 Sur 0 -- -- 73
2018-11-29 16:00:00 13.9 10 Sur 17 Sudeste 0 -- -- 70
2018-11-29 15:00:00 15.2 7 Oeste 19 Oeste 0 -- -- 65
2018-11-29 14:00:00 15 10 Oeste 24 Oeste 0 -- -- 59
2018-11-29 13:00:00 14.7 12 Sudoeste 24 Oeste 0 -- -- 53
2018-11-29 12:00:00 15 6 Sur 19 Sudeste 0 -- -- 46
2018-11-29 11:00:00 11.4 9 Sudeste 17 Sudeste 0 -- -- 63
2018-11-29 10:00:00 7.5 9 Sur 16 Sudeste 0 -- -- 73
2018-11-29 09:00:00 4.5 8 Sur 12 Sur 0 -- -- 78
2018-11-29 08:00:00 4.9 6 Sudeste 13 Sur 0 -- -- 73
2018-11-29 07:00:00 3.4 9 Sur 13 Sudeste 0 -- -- 86
2018-11-29 06:00:00 3.3 11 Sur 14 Sur 0 -- -- 90
2018-11-29 05:00:00 3.4 9 Sur 13 Sur 0 -- -- 92
2018-11-29 04:00:00 3.7 11 Sur 13 Sur 0 -- -- 93
2018-11-29 03:00:00 4.2 10 Sur 14 Sur 0 -- -- 91
2018-11-29 02:00:00 4.8 10 Sur 16 Sudeste 0 -- -- 90
2018-11-29 01:00:00 4.1 10 Sudeste 15 Sudeste 0 -- -- 93
2018-11-29 00:00:00 4.5 10 Sudeste 15 Sudeste 0 -- -- 91
2018-11-28 23:00:00 5.2 10 Sudeste 12 Sudeste 0 -- -- 90
2018-11-28 22:00:00 5.1 10 Sudeste 12 Sudeste 0 -- -- 89
2018-11-28 21:00:00 5.6 8 Sudeste 10 Sudeste 0 -- -- 90
2018-11-28 13:00:00 13.9 4 Noroeste 8 Noroeste 0 -- -- 53
2018-11-28 12:00:00 13.8 0 Calma 10 Sur 0 -- -- 62
2018-11-28 11:00:00 10.4 6 Sur 12 Sur 0 -- -- 74
2018-11-28 10:00:00 6.7 9 Sur 13 Sur 0 -- -- 83
2018-11-28 09:00:00 3 9 Sur 14 Sur 0 -- -- 91
2018-11-28 08:00:00 2.1 11 Sur 14 Sudeste 0 -- -- 94
2018-11-28 07:00:00 2.7 10 Sur 13 Sur 0 -- -- 94
2018-11-28 06:00:00 3.1 10 Sur 14 Sur 0 -- -- 94
2018-11-28 05:00:00 3.1 10 Sur 12 Sur 0 -- -- 95
2018-11-28 04:00:00 2.6 9 Sudeste 12 Sudeste 0 -- -- 96
2018-11-28 03:00:00 2.5 9 Sudeste 11 Sudeste 0 -- -- 97
2018-11-28 02:00:00 2.8 5 Sudeste 13 Sudeste 0 -- -- 96
2018-11-28 01:00:00 4 8 Sudeste 10 Sudeste 0 -- -- 95
2018-11-28 00:00:00 4.6 7 Sudeste 10 Sudeste 0 -- -- 94
2018-11-27 23:00:00 5.5 9 Sudeste 11 Sudeste 0 -- -- 94
2018-11-27 22:00:00 5.9 7 Sur 10 Sudeste 0 -- -- 95
2018-11-27 21:00:00 6 8 Sudeste 10 Sudeste 0 -- -- 95
2018-11-27 20:00:00 6.5 6 Sudeste 9 Sur 0 -- -- 93
2018-11-27 19:00:00 7.8 4 Sudeste 5 Sudeste 0 -- -- 89
2018-11-27 18:00:00 10.7 2 Sudeste 6 Noroeste 0 -- -- 81
2018-11-27 17:00:00 13.2 6 Oeste 11 Noroeste 0 -- -- 69
2018-11-27 16:00:00 14.8 9 Noroeste 15 Noroeste 0 -- -- 62
2018-11-27 15:00:00 14.7 8 Noroeste 15 Oeste 0 -- -- 57
2018-11-27 14:00:00 14.6 6 Noroeste 12 Noroeste 0 -- -- 63
2018-11-27 13:00:00 14 3 Noroeste 7 Norte 0 -- -- 64
2018-11-27 12:00:00 13.2 4 Este 10 Sudeste 0 -- -- 65
2018-11-27 11:00:00 10.1 6 Sudeste 11 Sudeste 0 -- -- 82
2018-11-27 10:00:00 5.6 8 Sudeste 16 Sur 0 -- -- 96
2018-11-27 09:00:00 4.3 10 Sudeste 13 Sudeste 0 -- -- 97
2018-11-27 08:00:00 4 8 Sur 13 Sur 0 -- -- 97
2018-11-27 07:00:00 4.3 6 Sur 10 Sur 0 -- -- 97
2018-11-27 06:00:00 4.4 6 Sur 10 Sudeste 0 -- -- 98
2018-11-27 05:00:00 4.3 7 Sur 11 Sur 0 -- -- 98
2018-11-27 04:00:00 4.3 6 Sudeste 11 Sur 0 -- -- 98
2018-11-27 03:00:00 4.2 4 Sur 12 Sudeste 0 -- -- 97
2018-11-27 02:00:00 4.4 5 Sudeste 10 Este 0 -- -- 97
2018-11-27 01:00:00 4.3 5 Sur 10 Sur 0 -- -- 97
2018-11-27 00:00:00 4.5 3 Sudeste 8 Sudeste 0 -- -- 96
2018-11-26 23:00:00 5.7 2 Sur 11 Este 0 -- -- 95
2018-11-26 22:00:00 5.7 2 Sudoeste 8 Este 0 -- -- 94
2018-11-26 21:00:00 6 4 Sudeste 6 Sudeste 0 -- -- 93
2018-11-26 20:00:00 7.5 2 Noroeste 10 Noroeste 0 -- -- 88
2018-11-26 19:00:00 9.7 3 Noroeste 21 Noroeste 0 -- -- 79
2018-11-26 18:00:00 10.4 8 Noroeste 19 Noroeste 0 -- -- 77
2018-11-26 17:00:00 11.6 13 Noroeste 27 Noroeste 0 -- -- 72
2018-11-26 16:00:00 12.1 18 Noroeste 27 Noroeste 0 -- -- 68
2018-11-26 15:00:00 13.1 20 Noroeste 31 Noroeste 0 -- -- 66
2018-11-26 14:00:00 12.6 20 Noroeste 36 Noroeste 0 -- -- 67
2018-11-26 13:00:00 12.1 25 Noroeste 41 Noroeste 0 -- -- 71
2018-11-26 12:00:00 11.5 22 Noroeste 34 Noroeste 0 -- -- 70
2018-11-26 11:00:00 10.8 24 Noroeste 43 Noroeste 0 -- -- 70
2018-11-26 10:00:00 9.4 26 Noroeste 41 Noroeste 0 -- -- 77
2018-11-26 09:00:00 8.8 25 Noroeste 41 Noroeste 0 -- -- 81
2018-11-26 08:00:00 8.3 19 Noroeste 41 Noroeste 0 -- -- 81
2018-11-26 07:00:00 8.8 22 Noroeste 41 Oeste 0 -- -- 82
2018-11-26 06:00:00 8.9 22 Noroeste 40 Noroeste 0 -- -- 77
2018-11-26 05:00:00 9.5 31 Noroeste 44 Noroeste 0 -- -- 79
2018-11-26 04:00:00 9.6 27 Noroeste 47 Noroeste 0 -- -- 75
2018-11-26 03:00:00 9.9 30 Noroeste 46 Noroeste 0 -- -- 73
2018-11-26 02:00:00 9.9 30 Noroeste 49 Noroeste 0 -- -- 78
2018-11-26 01:00:00 10.4 29 Noroeste 47 Noroeste 0 -- -- 77
2018-11-26 00:00:00 12.1 22 Noroeste 45 Noroeste 0 -- -- 80
2018-11-25 23:00:00 14 27 Noroeste 53 Noroeste 0.2 -- -- 83
2018-11-25 22:00:00 13.7 8 Sudoeste 36 Sur 2 -- -- 95
2018-11-25 21:00:00 12.8 18 Sur 42 Sudeste 1.6 -- -- 93
2018-11-25 20:00:00 11.9 19 Sur 48 Sur 2 -- -- 94
2018-11-25 19:00:00 12.1 25 Sur 60 Sur 0.6 -- -- 90
2018-11-25 18:00:00 13.3 16 Sudeste 42 Sur 0 -- -- 86
2018-11-25 17:00:00 14.1 9 Nordeste 26 Noroeste 0 -- -- 81
2018-11-25 16:00:00 14.6 9 Oeste 27 Sudoeste 0 -- -- 78
2018-11-25 15:00:00 14.8 8 Noroeste 27 Sudoeste 0 -- -- 82
2018-11-25 14:00:00 14.5 8 Noroeste 27 Oeste 0 -- -- 84
2018-11-25 13:00:00 14.5 8 Oeste 25 Oeste 0 -- -- 84
2018-11-25 12:00:00 14 6 Sudoeste 26 Sur 0 -- -- 87
2018-11-25 11:00:00 13.6 7 Norte 29 Sur 0 -- -- 89
2018-11-25 10:00:00 12.9 18 Sur 46 Sur 0.6 -- -- 94
2018-11-25 09:00:00 12.9 9 Sudeste 22 Sur 0 -- -- 90
2018-11-25 08:00:00 13 11 Sur 30 Oeste 0.4 -- -- 90
2018-11-25 07:00:00 13 12 Sudeste 26 Sudeste 0 -- -- 92
2018-11-25 06:00:00 12.7 6 Este 36 Oeste 1 -- -- 93
2018-11-25 05:00:00 12.7 7 Sudeste 31 Sur 0 -- -- 93
2018-11-25 04:00:00 12.7 7 Oeste 28 Noroeste 0.2 -- -- 91
2018-11-25 03:00:00 12.4 8 Noroeste 31 Noroeste 0 -- -- 91
2018-11-25 02:00:00 12.4 8 Oeste 36 Oeste 5.4 -- -- 92
2018-11-25 01:00:00 12.2 17 Sudeste 31 Sudeste 4 -- -- 94
2018-11-25 00:00:00 12.3 11 Sudeste 30 Sur 1.8 -- -- 92
2018-11-24 23:00:00 12.5 20 Sudeste 43 Sudeste 0.4 -- -- 88
2018-11-24 22:00:00 12.1 17 Sudeste 36 Sudeste 0 -- -- 87
2018-11-24 21:00:00 11.8 23 Sudeste 35 Sudeste 0 -- -- 84
2018-11-24 20:00:00 11.5 15 Sudeste 27 Sudeste 0 -- -- 87
2018-11-24 19:00:00 11.5 15 Sudeste 29 Sudeste 0 -- -- 85
2018-11-24 18:00:00 12.1 17 Sudeste 30 Sur 0 -- -- 82
2018-11-24 17:00:00 13.5 14 Sudeste 31 Sur 0 -- -- 69
2018-11-24 16:00:00 14 18 Sur 28 Sudoeste 0 -- -- 66
2018-11-24 15:00:00 13.9 13 Sur 27 Sudoeste 0 -- -- 63
2018-11-24 14:00:00 13.7 11 Sur 27 Sudeste 0 -- -- 64
2018-11-24 13:00:00 13.7 10 Sur 25 Sur 0 -- -- 59
2018-11-24 12:00:00 12.1 9 Sur 24 Sudeste 0 -- -- 66
2018-11-24 11:00:00 11.1 13 Sudeste 18 Sudeste 0 -- -- 73
2018-11-24 10:00:00 7.4 13 Sudeste 19 Sudeste 0 -- -- 90
2018-11-24 09:00:00 4.7 9 Sudeste 13 Sudeste 0 -- -- 95
2018-11-24 08:00:00 3.6 9 Sur 13 Sudeste 0 -- -- 95
2018-11-24 07:00:00 4.4 9 Sudeste 13 Sur 0 -- -- 94
2018-11-24 06:00:00 4.5 7 Sudeste 12 Sur 0 -- -- 94
2018-11-24 05:00:00 4.1 7 Sur 10 Sur 0 -- -- 95
2018-11-24 04:00:00 4.2 8 Sur 10 Sur 0 -- -- 94
2018-11-24 03:00:00 4.4 8 Sudeste 12 Sudeste 0 -- -- 93
2018-11-24 02:00:00 4.7 8 Sur 12 Sur 0 -- -- 94
2018-11-24 01:00:00 5 9 Sur 11 Sur 0 -- -- 93
2018-11-24 00:00:00 5.1 6 Sur 10 Sudeste 0 -- -- 94
2018-11-23 23:00:00 5.1 3 Sur 8 Sur 0 -- -- 94
2018-11-23 22:00:00 5.6 5 Sur 9 Sudeste 0 -- -- 93
2018-11-23 21:00:00 6.3 4 Sudeste 6 Sur 0 -- -- 90
2018-11-23 20:00:00 6.7 3 Sudeste 5 Sudeste 0 -- -- 89
2018-11-23 19:00:00 8.2 3 Sudoeste 7 Oeste 0 -- -- 81
2018-11-23 18:00:00 10.9 3 Oeste 12 Noroeste 0 -- -- 65
2018-11-23 17:00:00 12.1 8 Noroeste 17 Noroeste 0 -- -- 61
2018-11-23 16:00:00 13.7 13 Noroeste 21 Noroeste 0 -- -- 60
2018-11-23 15:00:00 13.9 5 Sudoeste 20 Oeste 0 -- -- 58
2018-11-23 14:00:00 13.6 11 Noroeste 17 Oeste 0 -- -- 67
2018-11-23 13:00:00 12.9 6 Oeste 15 Oeste 0 -- -- 67
2018-11-23 12:00:00 12.1 4 Sudoeste 19 Sudoeste 0 -- -- 74
2018-11-23 11:00:00 10.6 12 Sudoeste 22 Sudoeste 0 -- -- 83
2018-11-23 10:00:00 10.6 3 Sur 11 Oeste 0 -- -- 83
2018-11-23 09:00:00 7.9 6 Sudeste 9 Sudeste 0 -- -- 97
2018-11-23 08:00:00 7.4 2 Sur 12 Noroeste 0 -- -- 95
2018-11-23 07:00:00 9.2 10 Oeste 17 Oeste 0 -- -- 90
2018-11-23 06:00:00 9.4 5 Oeste 17 Noroeste 0 -- -- 91
2018-11-23 05:00:00 9.4 3 Sur 17 Sudoeste 0.2 -- -- 91
2018-11-23 04:00:00 9.5 6 Sudoeste 17 Sudoeste 0.8 -- -- 87
2018-11-23 03:00:00 9.4 3 Norte 7 Noroeste 0.8 -- -- 96
2018-11-23 02:00:00 10.2 4 Oeste 8 Sudoeste 0 -- -- 88
2018-11-23 01:00:00 10.5 4 Oeste 16 Sur 0 -- -- 82
2018-11-23 00:00:00 10.6 6 Sur 23 Oeste 0 -- -- 84
2018-11-22 23:00:00 10.7 12 Sudoeste 23 Sudoeste 0 -- -- 83
2018-11-22 22:00:00 10.7 6 Sudeste 20 Sur 0 -- -- 85
2018-11-22 21:00:00 10.6 4 Sudeste 22 Sur 0 -- -- 86
2018-11-22 20:00:00 11.3 10 Sur 22 Sur 0 -- -- 82
2018-11-22 19:00:00 11.3 4 Sudeste 10 Sudeste 0 -- -- 84
2018-11-22 18:00:00 11.7 3 Sur 17 Sur 0 -- -- 84
2018-11-22 17:00:00 12.2 10 Sur 27 Sudeste 0 -- -- 82
2018-11-22 16:00:00 12.6 11 Sudeste 20 Sudeste 0 -- -- 82
2018-11-22 15:00:00 12.9 10 Sudeste 18 Sudeste 0 -- -- 79
2018-11-22 14:00:00 13.1 12 Sur 20 Sudeste -- -- -- 77
2018-11-22 13:00:00 12.9 14 Sudeste 22 Sur 0 -- -- 78
2018-11-22 12:00:00 12.3 9 Sudeste 18 Sudeste 0 -- -- 85
2018-11-22 11:00:00 11.3 6 Sudeste 14 Sudeste 0 -- -- 89
2018-11-22 10:00:00 9.5 4 Sur 7 Sur 0 -- -- 94
2018-11-22 09:00:00 7.9 4 Sur 9 Sudeste 0 -- -- 96
2018-11-22 08:00:00 7.7 5 Sur 11 Sur 0 -- -- 95
2018-11-22 07:00:00 7.7 5 Sur 9 Sur 0 -- -- 94
2018-11-22 06:00:00 7.4 7 Sur 9 Sudeste 0 -- -- 96
2018-11-22 05:00:00 7.2 5 Sur 8 Sudeste 0 -- -- 97
2018-11-22 04:00:00 7.5 5 Sudeste 9 Sudeste 0 -- -- 95
2018-11-22 03:00:00 7.4 4 Sudeste 8 Sudeste 0 -- -- 96
2018-11-22 02:00:00 7.4 6 Sudeste 8 Sudeste 0 -- -- 96
2018-11-22 01:00:00 7.3 5 Sudeste 11 Sudeste 0 -- -- 96
2018-11-22 00:00:00 7.3 7 Sudeste 10 Sudeste 0 -- -- 95
2018-11-21 23:00:00 7.2 7 Sur 10 Sudeste 0 -- -- 94
2018-11-21 22:00:00 7.8 7 Sur 14 Sudeste 0 -- -- 92
2018-11-21 21:00:00 9.1 8 Sudeste 16 Sudeste 0 -- -- 87
2018-11-21 20:00:00 10.4 10 Sudeste 19 Sur 0 -- -- 80
2018-11-21 19:00:00 11.4 9 Sudeste 22 Sudeste 0 -- -- 75
2018-11-21 18:00:00 11.6 5 Este 14 Sudeste 0 -- -- 74
2018-11-21 17:00:00 11.8 5 Sudeste 26 Sur 0.2 -- -- 74
2018-11-21 16:00:00 12.8 8 Noroeste 15 Noroeste 0 -- -- 75
2018-11-21 15:00:00 12.2 6 Oeste 29 Oeste 0.4 -- -- 74
2018-11-21 14:00:00 13.3 9 Sur 31 Sur 0 -- -- 72
2018-11-21 13:00:00 12.4 8 Noroeste 22 Oeste 0 -- -- 73
2018-11-21 12:00:00 12.5 9 Este 24 Sur 0 -- -- 79
2018-11-21 11:00:00 12.7 9 Sur 26 Sudoeste 0 -- -- 81
2018-11-21 10:00:00 11.1 8 Sudeste 26 Sudeste 0 -- -- 89
2018-11-21 09:00:00 9.8 11 Sudeste 18 Sudeste 0.4 -- -- 93
2018-11-21 08:00:00 9.9 7 Sudeste 12 Sudeste 0 -- -- 93
2018-11-21 07:00:00 9.9 2 Sudeste 14 Oeste 0 -- -- 90
2018-11-21 06:00:00 10.4 0 Calma 13 Este 0 -- -- 87
2018-11-21 05:00:00 10.4 5 Sudeste 19 Oeste 0 -- -- 89
2018-11-21 04:00:00 10.5 5 Oeste 17 Oeste 0 -- -- 87
2018-11-21 03:00:00 10.5 4 Noroeste 24 Sudoeste 0 -- -- 90
2018-11-21 02:00:00 10.4 7 Oeste 20 Noroeste 0 -- -- 89
2018-11-21 01:00:00 10.5 6 Noroeste 23 Oeste 0.8 -- -- 87
2018-11-21 00:00:00 11 7 Noroeste 22 Oeste 0 -- -- 89
2018-11-20 23:00:00 10.8 5 Sur 28 Noroeste 0 -- -- 87
2018-11-20 22:00:00 11 6 Oeste 19 Oeste 0 -- -- 88
2018-11-20 21:00:00 11 10 Oeste 31 Oeste 0 -- -- 88
2018-11-20 20:00:00 11.3 13 Oeste 28 Oeste 0 -- -- 87
2018-11-20 19:00:00 11.3 13 Oeste 30 Sur 0 -- -- 88
2018-11-20 18:00:00 11.6 7 Oeste 37 Oeste 0.2 -- -- 84
2018-11-20 17:00:00 12.4 15 Oeste 39 Oeste 0 -- -- 80
2018-11-20 16:00:00 12.1 9 Oeste 34 Oeste 1 -- -- 82
2018-11-20 15:00:00 13.1 9 Oeste 33 Oeste 0 -- -- 72
2018-11-20 14:00:00 13.2 10 Oeste 37 Oeste 0 -- -- 68
2018-11-20 13:00:00 13.2 12 Noroeste 35 Oeste 0 -- -- 71
2018-11-20 12:00:00 12.2 15 Noroeste 33 Oeste 0 -- -- 72
2018-11-20 11:00:00 11.6 8 Noroeste 19 Noroeste 0 -- -- 83
2018-11-20 10:00:00 10.6 14 Noroeste 27 Noroeste 0.2 -- -- 90
2018-11-20 09:00:00 11 11 Noroeste 19 Oeste 0 -- -- 89
2018-11-20 08:00:00 10.3 5 Noroeste 10 Noroeste 0.8 -- -- 97
2018-11-20 07:00:00 10.4 4 Noroeste 5 Noroeste 0.2 -- -- 98
2018-11-20 06:00:00 10.4 3 Sur 5 Sudeste 0.4 -- -- 97
2018-11-20 05:00:00 10.4 3 Sudeste 10 Sudeste 0.4 -- -- 96
2018-11-20 04:00:00 10.5 4 Sudeste 8 Sudeste 0.6 -- -- 95
2018-11-20 03:00:00 11 4 Sudeste 16 Sur 0 -- -- 90
2018-11-20 02:00:00 11 10 Sur 19 Sur 0 -- -- 90
2018-11-20 01:00:00 10.1 6 Sur 12 Sur 0 -- -- 94
2018-11-20 00:00:00 9.8 6 Sudeste 9 Sur 0 -- -- 94
2018-11-19 23:00:00 11.2 4 Sudeste 12 Sur 0 -- -- 90
2018-11-19 22:00:00 12.1 8 Sudoeste 15 Sudoeste 0 -- -- 86
2018-11-19 21:00:00 12.4 7 Sudoeste 18 Sudoeste 0 -- -- 85
2018-11-19 20:00:00 12.5 10 Sudoeste 16 Sur 0 -- -- 86
2018-11-19 19:00:00 12.3 7 Sudoeste 14 Sudoeste 0 -- -- 85
2018-11-19 18:00:00 12.3 6 Sur 14 Sur 0 -- -- 86
2018-11-19 17:00:00 12.1 4 Este 6 Sudeste 0 -- -- 88
2018-11-19 16:00:00 12.1 0 Calma 12 Oeste 0.8 -- -- 86
2018-11-19 15:00:00 12.7 7 Oeste 11 Oeste 0 -- -- 83
2018-11-19 14:00:00 13.1 5 Noroeste 13 Norte 0 -- -- 81
2018-11-19 13:00:00 13.3 6 Noroeste 12 Noroeste 0 -- -- 82
2018-11-19 12:00:00 12.5 6 Noroeste 10 Noroeste 0 -- -- 85
2018-11-19 11:00:00 11.5 6 Noroeste 11 Noroeste 0 -- -- 94
2018-11-19 10:00:00 10.4 7 Noroeste 9 Noroeste 0 -- -- 98
2018-11-19 09:00:00 9.9 3 Noroeste 6 Noroeste 0 -- -- 99
2018-11-19 08:00:00 9.9 3 Noroeste 4 Noroeste 0 -- -- 98
2018-11-19 07:00:00 9.9 4 Noroeste 6 Noroeste 0 -- -- 98
2018-11-19 06:00:00 10.1 4 Noroeste 8 Noroeste 0.2 -- -- 98
2018-11-19 05:00:00 10.1 4 Noroeste 6 Noroeste 0 -- -- 98
2018-11-19 04:00:00 10 3 Noroeste 10 Noroeste 0 -- -- 97
2018-11-19 03:00:00 10.1 5 Norte 6 Norte 0 -- -- 97
2018-11-19 02:00:00 10.3 0 Calma 4 Sur 0 -- -- 95
2018-11-19 01:00:00 10.6 4 Sur 8 Sudeste 0 -- -- 92
2018-11-19 00:00:00 11 6 Sudeste 10 Sudeste 0.2 -- -- 90
2018-11-18 23:00:00 10.8 6 Sudeste 11 Sur 0 -- -- 93
2018-11-18 22:00:00 10.8 8 Sudeste 15 Sur 0 -- -- 92
2018-11-18 21:00:00 11.3 9 Sudeste 19 Sudeste 0 -- -- 90
2018-11-18 20:00:00 11.6 16 Sudeste 23 Sudeste 0 -- -- 90
2018-11-18 19:00:00 11.3 8 Sudeste 15 Sudeste 0 -- -- 91
2018-11-18 18:00:00 12.3 9 Sudeste 28 Sudeste 0 -- -- 85
2018-11-18 17:00:00 13.8 19 Sudeste 31 Sudeste 0 -- -- 77
2018-11-18 16:00:00 13.6 13 Sudeste 24 Sudeste 0 -- -- 85
2018-11-18 15:00:00 12.5 9 Sudeste 23 Sudeste 0 -- -- 87
2018-11-18 14:00:00 12.4 16 Sudeste 24 Sudeste 0 -- -- 84
2018-11-18 13:00:00 11.9 10 Sudeste 31 Sudeste 1.8 -- -- 87
2018-11-18 12:00:00 11.2 16 Sudeste 28 Sudeste 1 -- -- 89
2018-11-18 11:00:00 10.9 16 Sudeste 35 Sudeste 2.6 -- -- 88
2018-11-18 10:00:00 13 24 Sudeste 39 Sudeste 0 -- -- 87
2018-11-18 09:00:00 12.7 18 Sudeste 30 Sudeste 0 -- -- 87
2018-11-18 08:00:00 12.3 10 Sudeste 23 Sudeste 2 -- -- 91
2018-11-18 07:00:00 13 15 Sudeste 25 Sudeste 0 -- -- 84
2018-11-18 06:00:00 13 15 Sudeste 31 Sudeste 0 -- -- 82
2018-11-18 05:00:00 13.2 18 Sudeste 28 Sudeste 0 -- -- 83
2018-11-18 04:00:00 13.2 17 Sudeste 35 Sudeste 0 -- -- 83
2018-11-18 03:00:00 13.6 19 Sudeste 34 Sudeste 0 -- -- 81
2018-11-18 02:00:00 13.6 18 Sudeste 30 Sudeste 0 -- -- 83
2018-11-18 01:00:00 13.1 10 Sudeste 22 Sudeste 0 -- -- 84
2018-11-18 00:00:00 13.7 13 Sudeste 26 Sudeste 0 -- -- 82
2018-11-17 23:00:00 13.9 14 Sudeste 33 Sudeste 0 -- -- 81
2018-11-17 22:00:00 14.4 17 Sudeste 31 Sudeste 0 -- -- 78
2018-11-17 21:00:00 14.5 15 Sudeste 32 Sudeste 0 -- -- 78
2018-11-17 20:00:00 14.9 21 Sudeste 31 Sudeste 0 -- -- 76
2018-11-17 19:00:00 15.1 13 Sudeste 26 Sudeste 0 -- -- 79
2018-11-17 18:00:00 15.7 12 Sudeste 26 Sudeste 0 -- -- 76
2018-11-17 17:00:00 16.8 17 Sudeste 30 Sudeste 0 -- -- 69
2018-11-17 16:00:00 17.6 21 Sudeste 32 Sudeste 0 -- -- 66
2018-11-17 15:00:00 18.3 19 Sudeste 32 Sudeste 0 -- -- 63
2018-11-17 14:00:00 18.8 19 Sudeste 33 Sudeste 0 -- -- 63
2018-11-17 13:00:00 18 21 Sudeste 34 Sudeste 0 -- -- 66
2018-11-17 12:00:00 16.4 20 Sudeste 35 Sudeste 0 -- -- 74
2018-11-17 11:00:00 15.6 19 Sudeste 34 Sudeste 0 -- -- 80
2018-11-17 10:00:00 13.9 18 Sudeste 26 Sudeste 0 -- -- 85
2018-11-17 09:00:00 11.4 10 Sudeste 16 Sudeste 0 -- -- 93
2018-11-17 08:00:00 10.3 8 Sudeste 14 Sudeste 0 -- -- 95
2018-11-17 07:00:00 10.9 9 Sudeste 15 Sur 0 -- -- 94
2018-11-17 06:00:00 9.9 10 Sudeste 12 Sudeste 0 -- -- 97
2018-11-17 05:00:00 8.7 9 Sudeste 12 Sudeste 0 -- -- 96
2018-11-17 04:00:00 9.8 11 Sur 15 Sur 0 -- -- 97
2018-11-17 03:00:00 11.1 13 Sudeste 18 Sudeste 0 -- -- 92
2018-11-17 02:00:00 10.3 8 Sudeste 17 Sur 0 -- -- 93
2018-11-17 01:00:00 10.3 12 Sudeste 17 Sur 0 -- -- 93
2018-11-17 00:00:00 9.5 9 Sudeste 11 Sudeste 0 -- -- 96
2018-11-16 23:00:00 9.9 9 Sudeste 10 Sudeste 0 -- -- 95
2018-11-16 22:00:00 10.4 6 Sur 9 Sudeste 0 -- -- 95
2018-11-16 21:00:00 11.1 4 Sur 8 Sur 0 -- -- 93
2018-11-16 20:00:00 12.1 5 Sur 9 Sudeste 0 -- -- 90
2018-11-16 19:00:00 13.3 6 Sur 8 Sur 0 -- -- 85
2018-11-16 18:00:00 15.9 4 Sur 21 Sudeste 0 -- -- 73
2018-11-16 17:00:00 17.9 13 Sudeste 21 Sudeste 0 -- -- 62
2018-11-16 16:00:00 18.4 5 Este 13 Sudeste 0 -- -- 63
2018-11-16 15:00:00 18 7 Este 17 Sudeste 0 -- -- 65
2018-11-16 14:00:00 18.8 13 Sur 22 Sudeste 0 -- -- 63
2018-11-16 13:00:00 18 16 Sudeste 29 Sudeste 0 -- -- 65
2018-11-16 12:00:00 16.6 14 Sudeste 22 Sudeste 0 -- -- 73
2018-11-16 11:00:00 14.8 9 Sudeste 15 Sudeste 0 -- -- 83
2018-11-16 10:00:00 12.9 9 Sudeste 13 Sudeste 0 -- -- 90
2018-11-16 09:00:00 9.4 7 Sur 12 Sudeste 0.2 -- -- 97
2018-11-16 08:00:00 8.9 8 Sudeste 13 Sur 0 -- -- 96
2018-11-16 07:00:00 8.8 8 Sur 13 Sur 0 -- -- 97
2018-11-16 06:00:00 8.9 6 Sudeste 13 Sudeste 0 -- -- 97
2018-11-16 05:00:00 8.6 7 Sudeste 10 Sur 0 -- -- 97
2018-11-16 04:00:00 9.2 6 Sudeste 11 Sur 0 -- -- 97
2018-11-16 03:00:00 10 9 Sur 11 Sur 0 -- -- 96
2018-11-16 02:00:00 9.8 6 Sudeste 9 Sur 0 -- -- 96
2018-11-16 01:00:00 10.4 6 Sur 9 Sur 0 -- -- 95
2018-11-16 00:00:00 10.5 4 Sur 10 Sudeste 0 -- -- 96
2018-11-15 23:00:00 10.9 4 Sudeste 9 Sudeste 0 -- -- 96
2018-11-15 22:00:00 11.8 6 Sudeste 9 Sudeste 0 -- -- 94
2018-11-15 21:00:00 12.1 4 Sudeste 8 Sudeste 0 -- -- 94
2018-11-15 20:00:00 13.9 2 Sudeste 5 Sudeste 0 -- -- 92
2018-11-15 19:00:00 14.7 0 Calma 17 Sur 0.4 -- -- 89
2018-11-15 18:00:00 16.7 13 Sudoeste 26 Sur 0 -- -- 71
2018-11-15 17:00:00 18.8 3 Este 12 Nordeste 0 -- -- 60
2018-11-15 16:00:00 20.1 8 Nordeste 13 Nordeste 0 -- -- 58
2018-11-15 15:00:00 19.8 6 Sur 17 Sudoeste 0 -- -- 52
2018-11-15 14:00:00 20.6 5 Sur 13 Sudeste 0 -- -- 54
2018-11-15 13:00:00 19.5 7 Sudeste 14 Sudeste 0 -- -- 57
2018-11-15 12:00:00 18.1 9 Sudeste 13 Sudeste 0 -- -- 67
2018-11-15 11:00:00 16.5 6 Sudeste 11 Sudeste 0 -- -- 74
2018-11-15 10:00:00 13.7 5 Sudeste 9 Sur 0 -- -- 84
2018-11-15 09:00:00 10.8 6 Sudeste 10 Sudeste 0 -- -- 92
2018-11-15 08:00:00 9.9 6 Sur 11 Sudeste 0 -- -- 94
2018-11-15 07:00:00 10 8 Sudeste 10 Sudeste 0 -- -- 95
2018-11-15 06:00:00 10.2 4 Sudeste 12 Sudeste 0 -- -- 94
2018-11-15 05:00:00 10.4 10 Sudeste 13 Sudeste 0 -- -- 94
2018-11-15 04:00:00 10.5 7 Sudeste 12 Sudeste 0 -- -- 94
2018-11-15 03:00:00 11.4 7 Sudeste 14 Sudeste 0 -- -- 92
2018-11-15 02:00:00 12.2 9 Sur 13 Sudeste 0 -- -- 92
2018-11-15 01:00:00 13.3 9 Sudeste 16 Sur 0 -- -- 89
2018-11-15 00:00:00 13.4 8 Sur 14 Sur 0 -- -- 89
2018-11-14 23:00:00 13 6 Sudeste 15 Sur 0 -- -- 90
2018-11-14 22:00:00 13.1 9 Sudeste 13 Sur 0 -- -- 89
2018-11-14 21:00:00 13.6 6 Sudeste 10 Sudeste 0 -- -- 91
2018-11-14 20:00:00 14.4 8 Sur 19 Sudeste 0.6 -- -- 87
2018-11-14 19:00:00 16.2 3 Sur 8 Sudeste 0 -- -- 78
2018-11-14 18:00:00 18.2 4 Nordeste 11 Nordeste 0 -- -- 71
2018-11-14 17:00:00 19.4 7 Este 16 Este 0 -- -- 56
2018-11-14 16:00:00 20.2 9 Este 34 Este 0 -- -- 57
2018-11-14 15:00:00 20.5 9 Este 18 Sudeste 0 -- -- 58
2018-11-14 14:00:00 19.5 8 Sudeste 21 Este 0 -- -- 60
2018-11-14 13:00:00 18.6 13 Este 23 Sudeste 0 -- -- 65
2018-11-14 12:00:00 18.2 7 Sudeste 18 Sudeste 0 -- -- 65
2018-11-14 11:00:00 15.9 4 Este 13 Sudeste 0 -- -- 74
2018-11-14 10:00:00 13.3 8 Sur 13 Sur 0 -- -- 87
2018-11-14 09:00:00 9.1 0 Calma 6 Este 0 -- -- 99
2018-11-14 08:00:00 8.7 4 Sudeste 9 Sudeste 0 -- -- 99
2018-11-14 07:00:00 8.8 0 Calma 4 Sudeste 0 -- -- 98
2018-11-14 06:00:00 9.3 4 Sudeste 8 Sudeste 0 -- -- 98
2018-11-14 05:00:00 9.4 6 Sudeste 9 Sur 0 -- -- 98
2018-11-14 04:00:00 9.7 5 Sudeste 12 Sudeste 0 -- -- 99
2018-11-14 03:00:00 9.7 8 Sudeste 9 Sudeste 0 -- -- 98
2018-11-14 02:00:00 9.5 9 Sudeste 12 Sudeste 0 -- -- 99
2018-11-14 01:00:00 9 4 Sudeste 6 Sudeste 0 -- -- 99
2018-11-14 00:00:00 9.2 3 Sudeste 7 Sur 0 -- -- 98
2018-11-13 23:00:00 9.5 5 Sudeste 8 Sudeste 0 -- -- 98
2018-11-13 22:00:00 9.9 4 Sudeste 5 Sudeste 0 -- -- 98
2018-11-13 21:00:00 10.4 0 Calma 4 Sudeste 0 -- -- 97
2018-11-13 20:00:00 11.3 0 Calma 6 Norte 0 -- -- 95
2018-11-13 19:00:00 12.8 3 Noroeste 8 Noroeste 0 -- -- 93
2018-11-13 18:00:00 14.4 7 Noroeste 18 Noroeste 0 -- -- 88
2018-11-13 17:00:00 16.2 9 Noroeste 16 Noroeste 0 -- -- 82
2018-11-13 16:00:00 16.4 12 Noroeste 18 Noroeste 0 -- -- 82
2018-11-13 15:00:00 16.1 11 Noroeste 18 Noroeste 0 -- -- 79
2018-11-13 14:00:00 15.2 12 Noroeste 16 Noroeste 0 -- -- 83
2018-11-13 13:00:00 14.2 5 Noroeste 10 Nordeste 0 -- -- 86
2018-11-13 12:00:00 12.8 5 Nordeste 10 Norte 0 -- -- 89
2018-11-13 11:00:00 12 5 Norte 10 Nordeste 0 -- -- 93
2018-11-13 10:00:00 11.5 5 Norte 11 Norte 0 -- -- 95
2018-11-13 09:00:00 11 3 Norte 8 Nordeste 0 -- -- 95
2018-11-13 08:00:00 10.9 3 Nordeste 6 Nordeste 0 -- -- 96
2018-11-13 07:00:00 10.9 5 Nordeste 10 Nordeste 0 -- -- 97
2018-11-13 06:00:00 10.9 4 Noroeste 8 Noroeste 0 -- -- 98
2018-11-13 05:00:00 10.9 5 Noroeste 10 Noroeste 0 -- -- 98
2018-11-13 04:00:00 10.9 7 Noroeste 12 Noroeste 0 -- -- 98
2018-11-13 03:00:00 10.9 5 Noroeste 7 Noroeste 0 -- -- 99
2018-11-13 02:00:00 10.7 3 Noroeste 5 Noroeste 0.2 -- -- 99
2018-11-13 01:00:00 10.2 3 Noroeste 5 Sudeste 0 -- -- 98
2018-11-13 00:00:00 10.4 0 Calma 3 Oeste 0 -- -- 98
2018-11-12 23:00:00 11.1 0 Calma 7 Noroeste 0 -- -- 98
2018-11-12 22:00:00 11.3 4 Noroeste 12 Noroeste 0 -- -- 98
2018-11-12 21:00:00 11.4 2 Noroeste 5 Noroeste 0 -- -- 96
2018-11-12 20:00:00 11.8 2 Noroeste 9 Noroeste 0.8 -- -- 96
2018-11-12 19:00:00 12 7 Norte 13 Norte 1 -- -- 95
2018-11-12 18:00:00 12.4 12 Noroeste 18 Noroeste 0 -- -- 93
2018-11-12 17:00:00 14.1 4 Oeste 14 Sur 0 -- -- 83
2018-11-12 16:00:00 14.3 8 Sur 17 Sudoeste 0 -- -- 77
2018-11-12 15:00:00 14.9 8 Sur 19 Sudoeste 0 -- -- 75
2018-11-12 14:00:00 14.4 12 Sur 21 Sur 0 -- -- 77
2018-11-12 13:00:00 13.6 12 Sur 27 Sudoeste 0 -- -- 82
2018-11-12 12:00:00 13 9 Sudeste 21 Sudeste 0 -- -- 87
2018-11-12 11:00:00 11.6 2 Noroeste 9 Norte 0 -- -- 98
2018-11-12 10:00:00 11.4 6 Noroeste 16 Oeste 0 -- -- 99
2018-11-12 09:00:00 11.3 6 Noroeste 16 Noroeste 0.2 -- -- 98
2018-11-12 08:00:00 11.8 10 Noroeste 15 Sudeste 0.2 -- -- 96
2018-11-12 07:00:00 12.6 8 Sudeste 14 Sudoeste 1.6 -- -- 94
2018-11-12 06:00:00 12.9 4 Sur 17 Sudeste 0 -- -- 91
2018-11-12 05:00:00 12.8 6 Sudeste 26 Sur 0 -- -- 92
2018-11-12 04:00:00 13.3 14 Sudeste 23 Sudeste 0 -- -- 87
2018-11-12 03:00:00 13.4 12 Sur 41 Sudeste 0 -- -- 86
2018-11-12 02:00:00 13.6 26 Sudeste 45 Sudeste 0.4 -- -- 88
2018-11-12 01:00:00 12.6 18 Sudeste 31 Sudeste 0.6 -- -- 93
2018-11-12 00:00:00 11.6 11 Sudeste 19 Sudeste 0.4 -- -- 95
2018-11-11 23:00:00 11.3 9 Sudeste 30 Noroeste 3.6 -- -- 96
2018-11-11 22:00:00 11.1 13 Noroeste 28 Oeste 1.6 -- -- 94
2018-11-11 21:00:00 15 8 Sur 31 Sur 0 -- -- 78
2018-11-11 20:00:00 15.1 19 Sudeste 36 Sudeste 0 -- -- 80
2018-11-11 19:00:00 15.9 20 Sudeste 29 Sudeste 0 -- -- 76
2018-11-11 18:00:00 16.8 14 Sur 36 Sur 0 -- -- 72
2018-11-11 17:00:00 17.5 21 Sur 42 Sur 0 -- -- 69
2018-11-11 16:00:00 17.9 26 Sur 42 Sudeste 0 -- -- 69
2018-11-11 15:00:00 17.8 25 Sur 45 Sur 0 -- -- 74
2018-11-11 14:00:00 17.7 19 Sudeste 35 Sudeste 0 -- -- 75
2018-11-11 13:00:00 17.5 19 Sur 35 Sudeste 0 -- -- 77
2018-11-11 12:00:00 16.9 20 Sur 40 Sur 0 -- -- 80
2018-11-11 11:00:00 16.9 20 Sur 34 Sudeste 0.2 -- -- 80
2018-11-11 10:00:00 15.9 17 Sudeste 25 Sudeste 0 -- -- 86
2018-11-11 09:00:00 14.5 10 Sudeste 21 Sudeste 0 -- -- 92
2018-11-11 08:00:00 14.3 10 Sudeste 17 Sudeste 0 -- -- 93
2018-11-11 07:00:00 14.3 3 Sur 14 Sur 0 -- -- 92
2018-11-11 06:00:00 14.3 5 Sudeste 17 Sudeste 0 -- -- 92
2018-11-11 05:00:00 14.2 7 Sur 14 Sur 0 -- -- 92
2018-11-11 04:00:00 14 7 Sudeste 13 Sudeste 0 -- -- 93
2018-11-11 03:00:00 14.2 5 Sudeste 20 Sudeste 0 -- -- 92
2018-11-11 02:00:00 14.5 7 Sudeste 19 Sur 0 -- -- 92
2018-11-11 01:00:00 14.6 4 Norte 16 Este 0 -- -- 90
2018-11-11 00:00:00 14.6 9 Norte 20 Sudeste 0.2 -- -- 92
2018-11-10 23:00:00 14.5 9 Sudeste 22 Sudeste 0.2 -- -- 94
2018-11-10 22:00:00 14.3 9 Sudeste 26 Sudeste 0.4 -- -- 94
2018-11-10 21:00:00 14.3 15 Sudeste 27 Sudeste 0.6 -- -- 94
2018-11-10 20:00:00 14.2 10 Sudeste 24 Sudeste 0.4 -- -- 94
2018-11-10 19:00:00 14.1 11 Sudeste 27 Sur 0.2 -- -- 95
2018-11-10 18:00:00 14.3 12 Sur 35 Sur 0.4 -- -- 93
2018-11-10 17:00:00 14.6 15 Sudeste 30 Sur 0 -- -- 91
2018-11-10 16:00:00 15.9 6 Norte 41 Sudeste 0 -- -- 80
2018-11-10 15:00:00 15.9 19 Sudeste 44 Sur 0 -- -- 77
2018-11-10 14:00:00 15.8 8 Nordeste 36 Sudeste 0 -- -- 76
2018-11-10 13:00:00 15.7 13 Sudeste 62 Sudeste 0 -- -- 75
2018-11-10 12:00:00 15.2 27 Sudeste 63 Sur 0 -- -- 75
2018-11-10 11:00:00 14.2 15 Nordeste 38 Sudeste 0 -- -- 79
2018-11-10 10:00:00 13.7 21 Sudeste 38 Sur 0 -- -- 81
2018-11-10 09:00:00 13.2 16 Sudeste 36 Sur 0 -- -- 83
2018-11-10 08:00:00 12.8 16 Sur 39 Sur 0 -- -- 85
2018-11-10 07:00:00 12.8 14 Sur 32 Sudeste 0 -- -- 85
2018-11-10 06:00:00 12.4 12 Sudeste 22 Sudeste 0 -- -- 88
2018-11-10 05:00:00 12.1 9 Este 17 Sudeste 0 -- -- 88
2018-11-10 04:00:00 12.2 6 Este 15 Sudeste 0 -- -- 86
2018-11-10 03:00:00 12.2 5 Sudeste 15 Sur 0 -- -- 84
2018-11-10 02:00:00 12.2 5 Sur 26 Sudoeste 0 -- -- 82
2018-11-10 01:00:00 12.1 3 Sur 15 Sudeste 0 -- -- 81
2018-11-10 00:00:00 12.4 8 Sudeste 18 Sudoeste 0 -- -- 78